sensor_id;sensor_type;location;lat;lon;timestamp;pressure;altitude;pressure_sealevel;temperature;humidity
73383;BME280;61600;48.126;11.542;2023-10-08T00:00:44;96427.59;;;19.92;32.55
73383;BME280;61600;48.126;11.542;2023-10-08T00:03:16;96432.44;;;19.95;32.38
73383;BME280;61600;48.126;11.542;2023-10-08T00:05:46;96418.81;;;19.81;33.11
73383;BME280;61600;48.126;11.542;2023-10-08T00:08:12;96410.53;;;19.81;32.82
73383;BME280;61600;48.126;11.542;2023-10-08T00:10:42;96408.75;;;19.68;33.06
73383;BME280;61600;48.126;11.542;2023-10-08T00:13:10;96397.38;;;19.61;33.05
73383;BME280;61600;48.126;11.542;2023-10-08T00:15:37;96403.41;;;19.72;33.15
73383;BME280;61600;48.126;11.542;2023-10-08T00:18:04;96393.34;;;19.76;33.14
73383;BME280;61600;48.126;11.542;2023-10-08T00:20:35;96386.50;;;19.82;32.83
73383;BME280;61600;48.126;11.542;2023-10-08T00:23:08;96381.13;;;19.85;32.83
73383;BME280;61600;48.126;11.542;2023-10-08T00:25:35;96375.13;;;19.92;33.01
73383;BME280;61600;48.126;11.542;2023-10-08T00:28:09;96393.97;;;19.81;32.94
73383;BME280;61600;48.126;11.542;2023-10-08T00:30:39;96377.09;;;19.83;32.80
73383;BME280;61600;48.126;11.542;2023-10-08T00:33:08;96381.94;;;19.86;32.72
73383;BME280;61600;48.126;11.542;2023-10-08T00:35:41;96371.84;;;20.07;32.75
73383;BME280;61600;48.126;11.542;2023-10-08T00:38:07;96369.72;;;20.13;32.61
73383;BME280;61600;48.126;11.542;2023-10-08T00:40:41;96369.72;;;20.13;32.62
73383;BME280;61600;48.126;11.542;2023-10-08T00:43:32;96378.81;;;20.30;32.52
73383;BME280;61600;48.126;11.542;2023-10-08T00:45:59;96371.00;;;20.32;32.25
73383;BME280;61600;48.126;11.542;2023-10-08T00:48:26;96372.44;;;20.47;32.09
73383;BME280;61600;48.126;11.542;2023-10-08T00:50:57;96371.09;;;20.53;32.16
73383;BME280;61600;48.126;11.542;2023-10-08T00:53:35;96372.44;;;20.38;32.18
73383;BME280;61600;48.126;11.542;2023-10-08T00:56:06;96369.47;;;20.52;32.31
73383;BME280;61600;48.126;11.542;2023-10-08T00:58:41;96370.78;;;20.55;32.07
73383;BME280;61600;48.126;11.542;2023-10-08T01:01:08;96368.63;;;20.69;31.94
73383;BME280;61600;48.126;11.542;2023-10-08T01:03:37;96349.75;;;20.62;32.11
73383;BME280;61600;48.126;11.542;2023-10-08T01:06:10;96362.34;;;20.51;31.78
73383;BME280;61600;48.126;11.542;2023-10-08T01:08:37;96362.00;;;20.53;31.67
73383;BME280;61600;48.126;11.542;2023-10-08T01:11:22;96362.66;;;20.58;31.47
73383;BME280;61600;48.126;11.542;2023-10-08T01:14:04;96356.97;;;20.84;31.21
73383;BME280;61600;48.126;11.542;2023-10-08T01:16:33;96360.78;;;20.71;30.91
73383;BME280;61600;48.126;11.542;2023-10-08T01:19:00;96351.13;;;20.85;31.12
73383;BME280;61600;48.126;11.542;2023-10-08T01:21:29;96359.97;;;20.70;31.01
73383;BME280;61600;48.126;11.542;2023-10-08T01:24:06;96352.44;;;20.79;30.69
73383;BME280;61600;48.126;11.542;2023-10-08T01:26:34;96357.47;;;20.86;30.77
73383;BME280;61600;48.126;11.542;2023-10-08T01:29:00;96361.38;;;20.85;30.63
73383;BME280;61600;48.126;11.542;2023-10-08T01:31:34;96346.41;;;20.86;30.85
73383;BME280;61600;48.126;11.542;2023-10-08T01:34:02;96354.34;;;20.87;30.69
73383;BME280;61600;48.126;11.542;2023-10-08T01:36:30;96342.19;;;20.80;30.72
73383;BME280;61600;48.126;11.542;2023-10-08T01:38:57;96357.13;;;20.87;30.48
73383;BME280;61600;48.126;11.542;2023-10-08T01:41:23;96339.81;;;20.99;30.36
73383;BME280;61600;48.126;11.542;2023-10-08T01:43:56;96344.72;;;20.93;30.59
73383;BME280;61600;48.126;11.542;2023-10-08T01:46:24;96346.97;;;21.00;30.58
73383;BME280;61600;48.126;11.542;2023-10-08T01:48:51;96351.34;;;21.01;30.45
73383;BME280;61600;48.126;11.542;2023-10-08T01:51:25;96341.78;;;20.99;30.59
73383;BME280;61600;48.126;11.542;2023-10-08T01:54:01;96340.94;;;20.98;30.63
73383;BME280;61600;48.126;11.542;2023-10-08T01:56:28;96344.72;;;20.93;30.61
73383;BME280;61600;48.126;11.542;2023-10-08T01:58:55;96340.81;;;20.94;30.67
73383;BME280;61600;48.126;11.542;2023-10-08T02:01:21;96337.06;;;20.99;30.60
73383;BME280;61600;48.126;11.542;2023-10-08T02:03:47;96342.28;;;20.92;30.55
73383;BME280;61600;48.126;11.542;2023-10-08T02:06:13;96339.25;;;20.85;30.79
73383;BME280;61600;48.126;11.542;2023-10-08T02:08:39;96335.97;;;20.83;30.48
73383;BME280;61600;48.126;11.542;2023-10-08T02:11:04;96334.53;;;20.85;30.48
73383;BME280;61600;48.126;11.542;2023-10-08T02:13:31;96339.19;;;20.93;30.67
73383;BME280;61600;48.126;11.542;2023-10-08T02:15:57;96336.47;;;20.85;30.62
73383;BME280;61600;48.126;11.542;2023-10-08T02:18:23;96333.47;;;20.99;30.59
73383;BME280;61600;48.126;11.542;2023-10-08T02:20:51;96327.97;;;20.90;30.69
73383;BME280;61600;48.126;11.542;2023-10-08T02:23:17;96327.97;;;20.90;30.72
73383;BME280;61600;48.126;11.542;2023-10-08T02:25:43;96325.84;;;20.96;30.68
73383;BME280;61600;48.126;11.542;2023-10-08T02:28:10;96319.38;;;20.83;30.80
73383;BME280;61600;48.126;11.542;2023-10-08T02:30:42;96340.94;;;20.98;30.82
73383;BME280;61600;48.126;11.542;2023-10-08T02:33:08;96322.25;;;20.95;30.85
73383;BME280;61600;48.126;11.542;2023-10-08T02:35:46;96322.72;;;20.97;30.91
73383;BME280;61600;48.126;11.542;2023-10-08T02:38:13;96326.94;;;21.03;30.87
73383;BME280;61600;48.126;11.542;2023-10-08T02:40:42;96327.63;;;21.00;31.02
73383;BME280;61600;48.126;11.542;2023-10-08T02:43:12;96326.72;;;21.08;31.06
73383;BME280;61600;48.126;11.542;2023-10-08T02:45:41;96315.06;;;21.03;31.19
73383;BME280;61600;48.126;11.542;2023-10-08T02:48:08;96319.59;;;21.07;31.32
73383;BME280;61600;48.126;11.542;2023-10-08T02:50:40;96325.97;;;20.99;31.56
73383;BME280;61600;48.126;11.542;2023-10-08T02:53:07;96318.97;;;21.02;31.42
73383;BME280;61600;48.126;11.542;2023-10-08T02:55:37;96313.19;;;21.15;31.14
73383;BME280;61600;48.126;11.542;2023-10-08T02:58:08;96312.06;;;21.08;31.50
73383;BME280;61600;48.126;11.542;2023-10-08T03:00:44;96312.63;;;21.01;31.66
73383;BME280;61600;48.126;11.542;2023-10-08T03:03:15;96306.81;;;20.94;32.12
73383;BME280;61600;48.126;11.542;2023-10-08T03:05:48;96305.47;;;21.00;31.63
73383;BME280;61600;48.126;11.542;2023-10-08T03:08:15;96305.75;;;21.07;31.86
73383;BME280;61600;48.126;11.542;2023-10-08T03:10:48;96305.75;;;21.07;31.80
73383;BME280;61600;48.126;11.542;2023-10-08T03:13:32;96299.59;;;21.10;31.76
73383;BME280;61600;48.126;11.542;2023-10-08T03:15:58;96302.19;;;21.07;31.84
73383;BME280;61600;48.126;11.542;2023-10-08T03:18:34;96302.50;;;21.05;31.70
73383;BME280;61600;48.126;11.542;2023-10-08T03:21:08;96294.56;;;21.04;31.68
73383;BME280;61600;48.126;11.542;2023-10-08T03:23:46;96291.31;;;21.02;31.78
73383;BME280;61600;48.126;11.542;2023-10-08T03:26:22;96300.41;;;21.11;31.89
73383;BME280;61600;48.126;11.542;2023-10-08T03:29:10;96292.69;;;21.16;31.97
73383;BME280;61600;48.126;11.542;2023-10-08T03:31:43;96286.84;;;21.09;31.88
73383;BME280;61600;48.126;11.542;2023-10-08T03:34:16;96295.84;;;21.06;31.81
73383;BME280;61600;48.126;11.542;2023-10-08T03:36:45;96288.41;;;20.98;32.14
73383;BME280;61600;48.126;11.542;2023-10-08T03:39:12;96289.53;;;20.97;32.42
73383;BME280;61600;48.126;11.542;2023-10-08T03:41:42;96295.13;;;20.88;32.08
73383;BME280;61600;48.126;11.542;2023-10-08T03:44:17;96285.34;;;20.91;32.13
73383;BME280;61600;48.126;11.542;2023-10-08T03:46:43;96287.41;;;21.03;32.15
73383;BME280;61600;48.126;11.542;2023-10-08T03:49:09;96288.81;;;21.09;31.75
73383;BME280;61600;48.126;11.542;2023-10-08T03:51:51;96290.84;;;21.00;31.86
73383;BME280;61600;48.126;11.542;2023-10-08T03:54:18;96292.72;;;21.08;31.89
73383;BME280;61600;48.126;11.542;2023-10-08T03:56:45;96298.09;;;21.13;32.14
73383;BME280;61600;48.126;11.542;2023-10-08T03:59:14;96295.00;;;21.14;32.00
73383;BME280;61600;48.126;11.542;2023-10-08T04:01:56;96282.13;;;21.10;31.95
73383;BME280;61600;48.126;11.542;2023-10-08T04:04:25;96282.97;;;21.10;31.88
73383;BME280;61600;48.126;11.542;2023-10-08T04:07:18;96286.13;;;21.00;32.10
73383;BME280;61600;48.126;11.542;2023-10-08T04:09:54;96280.81;;;20.86;32.18
73383;BME280;61600;48.126;11.542;2023-10-08T04:12:35;96290.38;;;21.18;32.10
73383;BME280;61600;48.126;11.542;2023-10-08T04:15:02;96295.69;;;21.03;32.16
73383;BME280;61600;48.126;11.542;2023-10-08T04:17:34;96291.31;;;21.02;32.06
73383;BME280;61600;48.126;11.542;2023-10-08T04:20:13;96292.56;;;21.04;32.00
73383;BME280;61600;48.126;11.542;2023-10-08T04:22:57;96290.03;;;20.99;32.25
73383;BME280;61600;48.126;11.542;2023-10-08T04:25:29;96284.78;;;21.06;32.20
73383;BME280;61600;48.126;11.542;2023-10-08T04:27:56;96288.41;;;20.98;32.25
73383;BME280;61600;48.126;11.542;2023-10-08T04:30:34;96286.63;;;20.93;32.37
73383;BME280;61600;48.126;11.542;2023-10-08T04:33:02;96290.22;;;20.94;32.27
73383;BME280;61600;48.126;11.542;2023-10-08T04:35:36;96297.53;;;20.90;32.47
73383;BME280;61600;48.126;11.542;2023-10-08T04:38:03;96282.94;;;20.89;32.63
73383;BME280;61600;48.126;11.542;2023-10-08T04:40:30;96291.75;;;20.83;32.49
73383;BME280;61600;48.126;11.542;2023-10-08T04:43:06;96281.91;;;20.94;32.56
73383;BME280;61600;48.126;11.542;2023-10-08T04:45:37;96278.47;;;20.97;32.40
73383;BME280;61600;48.126;11.542;2023-10-08T04:48:04;96274.63;;;20.89;32.50
73383;BME280;61600;48.126;11.542;2023-10-08T04:50:36;96283.34;;;21.00;32.62
73383;BME280;61600;48.126;11.542;2023-10-08T04:53:03;96285.06;;;20.84;32.51
73383;BME280;61600;48.126;11.542;2023-10-08T04:55:36;96289.47;;;20.85;32.56
73383;BME280;61600;48.126;11.542;2023-10-08T04:58:07;96287.69;;;20.80;33.17
73383;BME280;61600;48.126;11.542;2023-10-08T05:00:45;96286.31;;;20.95;32.37
73383;BME280;61600;48.126;11.542;2023-10-08T05:03:25;96299.38;;;20.86;32.61
73383;BME280;61600;48.126;11.542;2023-10-08T05:05:57;96297.03;;;20.97;32.41
73383;BME280;61600;48.126;11.542;2023-10-08T05:08:46;96303.19;;;21.02;32.39
73383;BME280;61600;48.126;11.542;2023-10-08T05:11:23;96299.28;;;21.03;32.13
73383;BME280;61600;48.126;11.542;2023-10-08T05:14:08;96292.78;;;20.99;32.16
73383;BME280;61600;48.126;11.542;2023-10-08T05:16:42;96295.19;;;21.01;32.21
73383;BME280;61600;48.126;11.542;2023-10-08T05:19:26;96302.75;;;20.91;32.15
73383;BME280;61600;48.126;11.542;2023-10-08T05:22:12;96306.00;;;20.93;32.36
73383;BME280;61600;48.126;11.542;2023-10-08T05:24:55;96310.34;;;20.74;32.21
73383;BME280;61600;48.126;11.542;2023-10-08T05:27:38;96313.34;;;20.89;32.62
73383;BME280;61600;48.126;11.542;2023-10-08T05:30:21;96309.97;;;21.05;32.39
73383;BME280;61600;48.126;11.542;2023-10-08T05:32:53;96316.69;;;21.04;32.45
73383;BME280;61600;48.126;11.542;2023-10-08T05:35:38;96324.03;;;21.00;32.63
73383;BME280;61600;48.126;11.542;2023-10-08T05:38:08;96337.31;;;21.06;32.40
73383;BME280;61600;48.126;11.542;2023-10-08T05:40:53;96344.00;;;21.05;32.47
73383;BME280;61600;48.126;11.542;2023-10-08T05:46:21;96365.19;;;21.01;32.53
73383;BME280;61600;48.126;11.542;2023-10-08T05:48:59;96366.44;;;21.12;32.04
73383;BME280;61600;48.126;11.542;2023-10-08T05:51:32;96373.63;;;21.05;32.30
73383;BME280;61600;48.126;11.542;2023-10-08T05:54:17;96379.66;;;21.07;31.73
73383;BME280;61600;48.126;11.542;2023-10-08T05:59:44;96386.16;;;21.11;32.12
73383;BME280;61600;48.126;11.542;2023-10-08T06:02:26;96398.50;;;21.13;32.18
73383;BME280;61600;48.126;11.542;2023-10-08T06:05:07;96404.28;;;20.91;32.55
73383;BME280;61600;48.126;11.542;2023-10-08T06:07:50;96400.09;;;20.85;32.72
73383;BME280;61600;48.126;11.542;2023-10-08T06:10:16;96416.00;;;20.88;32.29
73383;BME280;61600;48.126;11.542;2023-10-08T06:15:40;96419.44;;;20.85;32.64
73383;BME280;61600;48.126;11.542;2023-10-08T06:18:26;96423.00;;;20.48;32.57
73383;BME280;61600;48.126;11.542;2023-10-08T06:20:52;96410.00;;;20.31;32.89
73383;BME280;61600;48.126;11.542;2023-10-08T06:23:22;96414.38;;;20.23;32.90
73383;BME280;61600;48.126;11.542;2023-10-08T06:25:53;96414.88;;;20.42;32.88
73383;BME280;61600;48.126;11.542;2023-10-08T06:28:25;96429.34;;;20.31;33.22
73383;BME280;61600;48.126;11.542;2023-10-08T06:30:54;96426.94;;;20.29;33.55
73383;BME280;61600;48.126;11.542;2023-10-08T06:33:22;96426.28;;;20.32;33.42
73383;BME280;61600;48.126;11.542;2023-10-08T06:35:48;96433.41;;;20.42;33.35
73383;BME280;61600;48.126;11.542;2023-10-08T06:38:33;96436.00;;;20.47;33.63
73383;BME280;61600;48.126;11.542;2023-10-08T06:41:00;96430.84;;;20.37;34.02
73383;BME280;61600;48.126;11.542;2023-10-08T06:43:27;96423.53;;;20.32;33.61
73383;BME280;61600;48.126;11.542;2023-10-08T06:45:54;96413.44;;;20.19;33.85
73383;BME280;61600;48.126;11.542;2023-10-08T06:48:24;96414.25;;;20.28;34.22
73383;BME280;61600;48.126;11.542;2023-10-08T06:50:52;96418.16;;;20.36;34.21
73383;BME280;61600;48.126;11.542;2023-10-08T06:53:22;96409.34;;;20.42;34.04
73383;BME280;61600;48.126;11.542;2023-10-08T06:55:49;96413.75;;;20.26;34.17
73383;BME280;61600;48.126;11.542;2023-10-08T06:58:23;96420.72;;;20.41;34.18
73383;BME280;61600;48.126;11.542;2023-10-08T07:00:49;96419.06;;;20.57;34.31
73383;BME280;61600;48.126;11.542;2023-10-08T07:03:16;96428.84;;;20.20;34.63
73383;BME280;61600;48.126;11.542;2023-10-08T07:05:50;96432.09;;;20.48;34.82
73383;BME280;61600;48.126;11.542;2023-10-08T07:08:27;96431.59;;;20.55;34.50
73383;BME280;61600;48.126;11.542;2023-10-08T07:10:55;96433.41;;;20.42;34.56
73383;BME280;61600;48.126;11.542;2023-10-08T07:13:22;96424.59;;;20.49;34.59
73383;BME280;61600;48.126;11.542;2023-10-08T07:15:49;96428.69;;;20.42;34.97
73383;BME280;61600;48.126;11.542;2023-10-08T07:18:15;96428.84;;;20.55;34.99
73383;BME280;61600;48.126;11.542;2023-10-08T07:20:48;96434.31;;;20.63;35.07
73383;BME280;61600;48.126;11.542;2023-10-08T07:23:22;96427.81;;;20.59;35.33
73383;BME280;61600;48.126;11.542;2023-10-08T07:26:00;96421.91;;;20.78;35.21
73383;BME280;61600;48.126;11.542;2023-10-08T07:28:41;96418.66;;;20.76;35.06
73383;BME280;61600;48.126;11.542;2023-10-08T07:31:14;96410.84;;;20.78;35.57
73383;BME280;61600;48.126;11.542;2023-10-08T07:33:43;96411.38;;;21.01;35.06
73383;BME280;61600;48.126;11.542;2023-10-08T07:36:12;96411.59;;;20.96;35.15
73383;BME280;61600;48.126;11.542;2023-10-08T07:38:42;96404.88;;;21.14;34.59
73383;BME280;61600;48.126;11.542;2023-10-08T07:41:11;96399.91;;;21.28;34.63
73383;BME280;61600;48.126;11.542;2023-10-08T07:43:41;96398.78;;;21.20;34.63
73383;BME280;61600;48.126;11.542;2023-10-08T07:46:12;96397.81;;;21.46;34.45
73383;BME280;61600;48.126;11.542;2023-10-08T07:48:40;96398.78;;;21.20;34.82
73383;BME280;61600;48.126;11.542;2023-10-08T07:51:09;96405.31;;;21.45;34.55
73383;BME280;61600;48.126;11.542;2023-10-08T07:53:35;96402.72;;;21.40;34.26
73383;BME280;61600;48.126;11.542;2023-10-08T07:56:05;96413.53;;;21.33;34.53
73383;BME280;61600;48.126;11.542;2023-10-08T07:58:35;96410.28;;;21.31;34.60
73383;BME280;61600;48.126;11.542;2023-10-08T08:01:07;96415.84;;;21.52;34.27
73383;BME280;61600;48.126;11.542;2023-10-08T08:03:37;96423.31;;;21.30;34.82
73383;BME280;61600;48.126;11.542;2023-10-08T08:06:04;96433.00;;;21.45;34.72
73383;BME280;61600;48.126;11.542;2023-10-08T08:08:39;96429.13;;;21.37;34.89
73383;BME280;61600;48.126;11.542;2023-10-08T08:11:06;96419.34;;;21.61;34.84
73383;BME280;61600;48.126;11.542;2023-10-08T08:13:38;96420.78;;;21.46;34.87
73383;BME280;61600;48.126;11.542;2023-10-08T08:16:04;96420.81;;;21.67;34.53
73383;BME280;61600;48.126;11.542;2023-10-08T08:18:44;96424.03;;;21.69;34.68
73383;BME280;61600;48.126;11.542;2023-10-08T08:21:11;96417.50;;;21.73;35.19
73383;BME280;61600;48.126;11.542;2023-10-08T08:23:46;96413.69;;;21.78;35.34
73383;BME280;61600;48.126;11.542;2023-10-08T08:26:20;96414.19;;;21.80;35.21
73383;BME280;61600;48.126;11.542;2023-10-08T08:28:55;96418.34;;;21.86;35.13
73383;BME280;61600;48.126;11.542;2023-10-08T08:31:24;96421.66;;;21.79;35.57
73383;BME280;61600;48.126;11.542;2023-10-08T08:33:51;96427.38;;;21.54;35.72
73383;BME280;61600;48.126;11.542;2023-10-08T08:36:28;96433.66;;;21.92;35.05
73383;BME280;61600;48.126;11.542;2023-10-08T08:38:55;96427.59;;;21.99;35.31
73383;BME280;61600;48.126;11.542;2023-10-08T08:41:21;96423.31;;;22.01;35.23
73383;BME280;61600;48.126;11.542;2023-10-08T08:43:50;96436.94;;;22.06;35.63
73383;BME280;61600;48.126;11.542;2023-10-08T08:46:35;96441.25;;;21.74;36.27
73383;BME280;61600;48.126;11.542;2023-10-08T08:49:03;96441.94;;;21.92;36.35
73383;BME280;61600;48.126;11.542;2023-10-08T08:51:30;96438.53;;;21.95;35.98
73383;BME280;61600;48.126;11.542;2023-10-08T08:53:56;96437.75;;;21.86;36.38
73383;BME280;61600;48.126;11.542;2023-10-08T08:56:26;96436.59;;;21.87;36.36
73383;BME280;61600;48.126;11.542;2023-10-08T08:58:51;96432.31;;;21.98;36.37
73383;BME280;61600;48.126;11.542;2023-10-08T09:01:19;96427.97;;;22.09;36.30
73383;BME280;61600;48.126;11.542;2023-10-08T09:03:45;96421.22;;;21.98;36.54
73383;BME280;61600;48.126;11.542;2023-10-08T09:06:14;96427.50;;;22.07;36.51
73383;BME280;61600;48.126;11.542;2023-10-08T09:08:39;96427.19;;;22.21;36.25
73383;BME280;61600;48.126;11.542;2023-10-08T09:11:08;96407.41;;;22.10;36.56
73383;BME280;61600;48.126;11.542;2023-10-08T09:13:34;96408.44;;;22.06;36.45
73383;BME280;61600;48.126;11.542;2023-10-08T09:16:14;96411.56;;;22.04;36.47
73383;BME280;61600;48.126;11.542;2023-10-08T09:18:49;96413.06;;;22.02;36.45
73383;BME280;61600;48.126;11.542;2023-10-08T09:21:16;96418.19;;;22.45;35.90
73383;BME280;61600;48.126;11.542;2023-10-08T09:23:49;96419.81;;;22.13;36.27
73383;BME280;61600;48.126;11.542;2023-10-08T09:26:22;96426.06;;;22.22;36.17
73383;BME280;61600;48.126;11.542;2023-10-08T09:28:49;96440.19;;;22.29;36.20
73383;BME280;61600;48.126;11.542;2023-10-08T09:31:17;96432.69;;;22.41;36.14
73383;BME280;61600;48.126;11.542;2023-10-08T09:33:53;96445.59;;;22.58;35.65
73383;BME280;61600;48.126;11.542;2023-10-08T09:36:20;96441.69;;;22.38;36.09
73383;BME280;61600;48.126;11.542;2023-10-08T09:38:52;96444.28;;;22.56;35.60
73383;BME280;61600;48.126;11.542;2023-10-08T09:41:19;96455.78;;;22.66;35.93
73383;BME280;61600;48.126;11.542;2023-10-08T09:43:45;96463.50;;;22.94;35.02
73383;BME280;61600;48.126;11.542;2023-10-08T09:46:16;96463.22;;;22.74;36.30
73383;BME280;61600;48.126;11.542;2023-10-08T09:48:50;96464.91;;;23.00;35.59
73383;BME280;61600;48.126;11.542;2023-10-08T09:51:18;96466.88;;;22.66;35.94
73383;BME280;61600;48.126;11.542;2023-10-08T09:56:24;96464.00;;;23.20;35.78
73383;BME280;61600;48.126;11.542;2023-10-08T09:58:51;96478.22;;;23.18;35.50
73383;BME280;61600;48.126;11.542;2023-10-08T10:01:18;96476.88;;;23.49;35.48
73383;BME280;61600;48.126;11.542;2023-10-08T10:03:45;96485.44;;;23.56;35.12
73383;BME280;61600;48.126;11.542;2023-10-08T10:06:15;96482.78;;;23.71;34.79
73383;BME280;61600;48.126;11.542;2023-10-08T10:08:44;96492.84;;;23.64;34.68
73383;BME280;61600;48.126;11.542;2023-10-08T10:11:10;96491.66;;;23.65;34.62
73383;BME280;61600;48.126;11.542;2023-10-08T10:13:42;96499.88;;;23.61;35.30
73383;BME280;61600;48.126;11.542;2023-10-08T10:16:10;96501.63;;;23.66;35.94
73383;BME280;61600;48.126;11.542;2023-10-08T10:18:38;96498.81;;;23.29;36.52
73383;BME280;61600;48.126;11.542;2023-10-08T10:23:40;96495.69;;;23.31;36.06
73383;BME280;61600;48.126;11.542;2023-10-08T10:26:32;96501.22;;;23.07;36.35
73383;BME280;61600;48.126;11.542;2023-10-08T10:31:45;96502.16;;;23.23;36.63
73383;BME280;61600;48.126;11.542;2023-10-08T10:34:25;96506.66;;;23.15;36.37
73383;BME280;61600;48.126;11.542;2023-10-08T10:36:58;96509.19;;;23.08;37.51
73383;BME280;61600;48.126;11.542;2023-10-08T10:39:42;96506.72;;;22.95;36.65
73383;BME280;61600;48.126;11.542;2023-10-08T10:42:10;96508.13;;;22.88;36.76
73383;BME280;61600;48.126;11.542;2023-10-08T10:44:51;96506.09;;;22.77;36.87
73383;BME280;61600;48.126;11.542;2023-10-08T10:47:19;96507.63;;;22.74;37.64
73383;BME280;61600;48.126;11.542;2023-10-08T10:49:50;96509.03;;;22.60;37.98
73383;BME280;61600;48.126;11.542;2023-10-08T10:52:35;96499.84;;;22.68;38.31
73383;BME280;61600;48.126;11.542;2023-10-08T10:55:12;96499.75;;;22.76;38.47
73383;BME280;61600;48.126;11.542;2023-10-08T10:58:03;96492.38;;;22.60;38.45
73383;BME280;61600;48.126;11.542;2023-10-08T11:00:42;96492.38;;;22.80;38.48
73383;BME280;61600;48.126;11.542;2023-10-08T11:03:08;96486.56;;;22.73;38.36
73383;BME280;61600;48.126;11.542;2023-10-08T11:05:47;96487.88;;;22.76;38.09
73383;BME280;61600;48.126;11.542;2023-10-08T11:08:15;96481.75;;;22.82;38.41
73383;BME280;61600;48.126;11.542;2023-10-08T11:10:44;96480.50;;;22.92;38.28
73383;BME280;61600;48.126;11.542;2023-10-08T11:13:20;96474.81;;;22.88;38.11
73383;BME280;61600;48.126;11.542;2023-10-08T11:15:50;96466.03;;;22.86;38.62
73383;BME280;61600;48.126;11.542;2023-10-08T11:18:19;96470.97;;;22.69;38.63
73383;BME280;61600;48.126;11.542;2023-10-08T11:20:46;96468.78;;;22.74;38.88
73383;BME280;61600;48.126;11.542;2023-10-08T11:23:37;96470.66;;;22.82;38.69
73383;BME280;61600;48.126;11.542;2023-10-08T11:26:05;96463.63;;;22.64;38.73
73383;BME280;61600;48.126;11.542;2023-10-08T11:28:32;96469.41;;;22.92;38.83
73383;BME280;61600;48.126;11.542;2023-10-08T11:31:03;96468.66;;;22.71;38.83
73383;BME280;61600;48.126;11.542;2023-10-08T11:33:35;96477.91;;;22.75;38.85
73383;BME280;61600;48.126;11.542;2023-10-08T11:36:05;96485.09;;;22.88;38.80
73383;BME280;61600;48.126;11.542;2023-10-08T11:38:50;96473.50;;;22.74;39.43
73383;BME280;61600;48.126;11.542;2023-10-08T11:41:19;96472.50;;;22.90;38.78
73383;BME280;61600;48.126;11.542;2023-10-08T11:43:49;96468.69;;;22.95;38.38
73383;BME280;61600;48.126;11.542;2023-10-08T11:46:31;96467.63;;;22.87;38.58
73383;BME280;61600;48.126;11.542;2023-10-08T11:49:08;96461.97;;;22.84;38.85
73383;BME280;61600;48.126;11.542;2023-10-08T11:51:44;96470.09;;;22.89;38.46
73383;BME280;61600;48.126;11.542;2023-10-08T11:54:11;96452.59;;;22.76;38.35
73383;BME280;61600;48.126;11.542;2023-10-08T11:56:38;96457.56;;;22.71;38.84
73383;BME280;61600;48.126;11.542;2023-10-08T11:59:04;96476.03;;;22.67;38.77
73383;BME280;61600;48.126;11.542;2023-10-08T12:01:37;96472.38;;;22.54;38.79
73383;BME280;61600;48.126;11.542;2023-10-08T12:04:08;96460.63;;;22.90;38.40
73383;BME280;61600;48.126;11.542;2023-10-08T12:06:41;96468.34;;;22.84;38.65
73383;BME280;61600;48.126;11.542;2023-10-08T12:09:13;96470.31;;;22.63;38.92
73383;BME280;61600;48.126;11.542;2023-10-08T12:11:43;96466.56;;;22.80;38.68
73383;BME280;61600;48.126;11.542;2023-10-08T12:14:09;96446.81;;;22.69;38.52
73383;BME280;61600;48.126;11.542;2023-10-08T12:16:36;96457.81;;;22.78;38.85
73383;BME280;61600;48.126;11.542;2023-10-08T12:19:02;96452.41;;;22.61;38.71
73383;BME280;61600;48.126;11.542;2023-10-08T12:21:41;96454.56;;;22.76;38.71
73383;BME280;61600;48.126;11.542;2023-10-08T12:24:07;96457.59;;;22.83;38.61
73383;BME280;61600;48.126;11.542;2023-10-08T12:26:41;96460.13;;;22.76;38.87
73383;BME280;61600;48.126;11.542;2023-10-08T12:29:13;96456.56;;;23.00;38.33
73383;BME280;61600;48.126;11.542;2023-10-08T12:31:47;96462.56;;;22.89;38.09
73383;BME280;61600;48.126;11.542;2023-10-08T12:34:14;96459.44;;;22.91;38.65
73383;BME280;61600;48.126;11.542;2023-10-08T12:36:39;96460.25;;;22.92;38.20
73383;BME280;61600;48.126;11.542;2023-10-08T12:39:05;96456.63;;;22.67;38.38
73383;BME280;61600;48.126;11.542;2023-10-08T12:41:41;96463.69;;;22.76;38.39
73383;BME280;61600;48.126;11.542;2023-10-08T12:44:10;96463.06;;;22.59;38.82
73383;BME280;61600;48.126;11.542;2023-10-08T12:46:36;96463.59;;;22.73;38.27
73383;BME280;61600;48.126;11.542;2023-10-08T12:49:02;96453.53;;;22.80;38.51
73383;BME280;61600;48.126;11.542;2023-10-08T12:51:29;96457.22;;;22.72;38.26
73383;BME280;61600;48.126;11.542;2023-10-08T12:53:59;96454.00;;;22.82;38.54
73383;BME280;61600;48.126;11.542;2023-10-08T12:56:33;96454.69;;;22.92;38.48
73383;BME280;61600;48.126;11.542;2023-10-08T12:59:04;96447.44;;;22.66;38.53
73383;BME280;61600;48.126;11.542;2023-10-08T13:01:35;96433.97;;;22.77;38.72
73383;BME280;61600;48.126;11.542;2023-10-08T13:04:02;96419.25;;;22.64;38.88
73383;BME280;61600;48.126;11.542;2023-10-08T13:06:36;96409.50;;;22.46;39.46
73383;BME280;61600;48.126;11.542;2023-10-08T13:09:05;96410.78;;;22.49;39.18
73383;BME280;61600;48.126;11.542;2023-10-08T13:11:38;96419.09;;;22.69;38.90
73383;BME280;61600;48.126;11.542;2023-10-08T13:14:04;96407.88;;;22.78;38.82
73383;BME280;61600;48.126;11.542;2023-10-08T13:16:30;96413.91;;;22.92;38.55
73383;BME280;61600;48.126;11.542;2023-10-08T13:19:03;96413.78;;;22.88;38.60
73383;BME280;61600;48.126;11.542;2023-10-08T13:21:29;96419.22;;;22.97;38.89
73383;BME280;61600;48.126;11.542;2023-10-08T13:23:57;96425.34;;;23.03;38.56
73383;BME280;61600;48.126;11.542;2023-10-08T13:26:29;96430.69;;;23.08;38.43
73383;BME280;61600;48.126;11.542;2023-10-08T13:28:58;96425.38;;;23.39;38.18